AFR334M LFPG-KBOS
Flight info
| Callsign | AFR334M |
|---|---|
| Flight time | N/A |
| Altitude | 38000 |
| Route | ELCOB6L ELCOB UT300 SENLO DCT JSY DCT LIZAD DCT LULOX DCT LIMRI/M084F390 NATH PORTI/N0483F400 N182B KANNI DCT EURRO OOSHN5 |
| Aircraft | A359/H-SDE2E3GHIJ1J3J4J5LM1ORWXYZ/LB1D1 |
Departure
| Time | 2026-05-08 20:18 |
|---|---|
| Airport | Charles de Gaulle International Airport (LFPG) |
Arrival
| Time | N/A |
|---|---|
| Airport | Boston Logan International Airport (KBOS) |
| Time | Latitude | Longitude | Altitude | Speed | Heading |
|---|---|---|---|---|---|
| 2026-05-08 19:14 | 49.00143 | 2.57919 | 361 ft | 0 kts | 355° |
| 2026-05-08 19:49 | 49.00137 | 2.57920 | 360 ft | 4 kts | 354° |
| 2026-05-08 19:49 | 49.00111 | 2.57924 | 365 ft | 4 kts | 1° |
| 2026-05-08 19:49 | 49.00086 | 2.57916 | 365 ft | 4 kts | 36° |
| 2026-05-08 19:50 | 49.00071 | 2.57887 | 364 ft | 4 kts | 77° |
| 2026-05-08 19:50 | 49.00069 | 2.57870 | 367 ft | 0 kts | 85° |
| 2026-05-08 19:53 | 49.00070 | 2.57881 | 364 ft | 3 kts | 85° |
| 2026-05-08 19:53 | 49.00072 | 2.57920 | 363 ft | 4 kts | 85° |
| 2026-05-08 19:53 | 49.00074 | 2.57972 | 365 ft | 5 kts | 85° |
| 2026-05-08 19:53 | 49.00078 | 2.58036 | 367 ft | 7 kts | 85° |
| 2026-05-08 19:54 | 49.00081 | 2.58095 | 362 ft | 4 kts | 85° |
| 2026-05-08 19:54 | 49.00083 | 2.58145 | 365 ft | 5 kts | 85° |
| 2026-05-08 19:54 | 49.00086 | 2.58203 | 366 ft | 5 kts | 85° |
| 2026-05-08 19:54 | 49.00088 | 2.58227 | 366 ft | 0 kts | 85° |
| 2026-05-08 19:55 | 49.00087 | 2.58270 | 366 ft | 6 kts | 98° |
| 2026-05-08 19:55 | 49.00063 | 2.58307 | 367 ft | 4 kts | 158° |
| 2026-05-08 19:56 | 49.00040 | 2.58316 | 365 ft | 0 kts | 159° |
| 2026-05-08 19:56 | 49.00034 | 2.58311 | 363 ft | 3 kts | 197° |
| 2026-05-08 19:57 | 49.00019 | 2.58274 | 367 ft | 5 kts | 249° |
| 2026-05-08 19:57 | 49.00009 | 2.58216 | 364 ft | 7 kts | 258° |
| 2026-05-08 19:57 | 49.00002 | 2.58124 | 368 ft | 12 kts | 265° |
| 2026-05-08 19:57 | 48.99995 | 2.57988 | 363 ft | 13 kts | 264° |
| 2026-05-08 19:58 | 48.99987 | 2.57840 | 368 ft | 14 kts | 265° |
| 2026-05-08 19:58 | 48.99978 | 2.57687 | 369 ft | 15 kts | 265° |
| 2026-05-08 19:58 | 48.99970 | 2.57523 | 360 ft | 16 kts | 264° |
| 2026-05-08 19:58 | 48.99961 | 2.57368 | 360 ft | 14 kts | 265° |
| 2026-05-08 19:59 | 48.99953 | 2.57217 | 364 ft | 15 kts | 265° |
| 2026-05-08 19:59 | 48.99944 | 2.57057 | 366 ft | 16 kts | 265° |
| 2026-05-08 19:59 | 48.99934 | 2.56885 | 360 ft | 17 kts | 265° |
| 2026-05-08 19:59 | 48.99925 | 2.56703 | 365 ft | 18 kts | 265° |
| 2026-05-08 20:00 | 48.99915 | 2.56517 | 366 ft | 18 kts | 265° |
| 2026-05-08 20:00 | 48.99906 | 2.56325 | 362 ft | 19 kts | 266° |
| 2026-05-08 20:00 | 48.99895 | 2.56124 | 360 ft | 19 kts | 265° |
| 2026-05-08 20:00 | 48.99895 | 2.55920 | 363 ft | 20 kts | 281° |
| 2026-05-08 20:01 | 48.99929 | 2.55744 | 369 ft | 14 kts | 298° |
| 2026-05-08 20:01 | 49.00005 | 2.55663 | 364 ft | 14 kts | 341° |
| 2026-05-08 20:01 | 49.00096 | 2.55624 | 365 ft | 14 kts | 345° |
| 2026-05-08 20:01 | 49.00192 | 2.55583 | 365 ft | 15 kts | 343° |
| 2026-05-08 20:02 | 49.00294 | 2.55537 | 366 ft | 16 kts | 343° |
| 2026-05-08 20:02 | 49.00328 | 2.55523 | 365 ft | 0 kts | 344° |
| 2026-05-08 20:02 | 49.00336 | 2.55519 | 368 ft | 5 kts | 344° |
| 2026-05-08 20:02 | 49.00376 | 2.55503 | 366 ft | 7 kts | 345° |
| 2026-05-08 20:03 | 49.00424 | 2.55482 | 364 ft | 8 kts | 344° |
| 2026-05-08 20:03 | 49.00482 | 2.55457 | 369 ft | 9 kts | 343° |
| 2026-05-08 20:03 | 49.00550 | 2.55427 | 365 ft | 13 kts | 344° |
| 2026-05-08 20:03 | 49.00646 | 2.55385 | 365 ft | 15 kts | 344° |
| 2026-05-08 20:04 | 49.00748 | 2.55341 | 366 ft | 16 kts | 344° |
| 2026-05-08 20:04 | 49.00855 | 2.55294 | 365 ft | 16 kts | 344° |
| 2026-05-08 20:04 | 49.00968 | 2.55244 | 368 ft | 17 kts | 344° |
| 2026-05-08 20:04 | 49.01084 | 2.55193 | 364 ft | 18 kts | 344° |
| 2026-05-08 20:05 | 49.01207 | 2.55165 | 364 ft | 18 kts | 8° |
| 2026-05-08 20:05 | 49.01325 | 2.55218 | 366 ft | 18 kts | 2° |
| 2026-05-08 20:05 | 49.01447 | 2.55183 | 369 ft | 18 kts | 346° |
| 2026-05-08 20:05 | 49.01567 | 2.55163 | 366 ft | 18 kts | 356° |
| 2026-05-08 20:06 | 49.01691 | 2.55147 | 364 ft | 18 kts | 355° |
| 2026-05-08 20:06 | 49.01814 | 2.55131 | 367 ft | 18 kts | 351° |
| 2026-05-08 20:06 | 49.01856 | 2.54992 | 363 ft | 16 kts | 265° |
| 2026-05-08 20:06 | 49.01847 | 2.54817 | 364 ft | 17 kts | 265° |
| 2026-05-08 20:07 | 49.01837 | 2.54633 | 361 ft | 18 kts | 265° |
| 2026-05-08 20:07 | 49.01826 | 2.54440 | 366 ft | 19 kts | 266° |
| 2026-05-08 20:07 | 49.01816 | 2.54238 | 367 ft | 19 kts | 265° |
| 2026-05-08 20:07 | 49.01805 | 2.54029 | 363 ft | 20 kts | 265° |
| 2026-05-08 20:08 | 49.01793 | 2.53816 | 365 ft | 21 kts | 265° |
| 2026-05-08 20:08 | 49.01781 | 2.53592 | 362 ft | 22 kts | 265° |
| 2026-05-08 20:08 | 49.01768 | 2.53367 | 362 ft | 21 kts | 264° |
| 2026-05-08 20:08 | 49.01755 | 2.53140 | 367 ft | 21 kts | 266° |
| 2026-05-08 20:09 | 49.01748 | 2.52990 | 365 ft | 21 kts | 265° |
| 2026-05-08 20:09 | 49.01737 | 2.52762 | 366 ft | 22 kts | 265° |
| 2026-05-08 20:09 | 49.01720 | 2.52463 | 367 ft | 19 kts | 266° |
| 2026-05-08 20:09 | 49.01714 | 2.52329 | 368 ft | 0 kts | 265° |
| 2026-05-08 20:10 | 49.01713 | 2.52303 | 368 ft | 4 kts | 265° |
| 2026-05-08 20:10 | 49.01710 | 2.52251 | 366 ft | 6 kts | 265° |
| 2026-05-08 20:10 | 49.01706 | 2.52171 | 363 ft | 10 kts | 265° |
| 2026-05-08 20:11 | 49.01700 | 2.52043 | 363 ft | 13 kts | 265° |
| 2026-05-08 20:11 | 49.01692 | 2.51895 | 362 ft | 15 kts | 265° |
| 2026-05-08 20:11 | 49.01684 | 2.51736 | 370 ft | 16 kts | 265° |
| 2026-05-08 20:11 | 49.01673 | 2.51548 | 368 ft | 19 kts | 265° |
| 2026-05-08 20:12 | 49.01666 | 2.51351 | 361 ft | 18 kts | 280° |
| 2026-05-08 20:12 | 49.01758 | 2.51271 | 366 ft | 16 kts | 353° |
| 2026-05-08 20:12 | 49.01866 | 2.51259 | 367 ft | 16 kts | 356° |
| 2026-05-08 20:12 | 49.01933 | 2.51254 | 365 ft | 0 kts | 2° |
| 2026-05-08 20:15 | 49.01936 | 2.51254 | 361 ft | 4 kts | 5° |
| 2026-05-08 20:16 | 49.01993 | 2.51290 | 369 ft | 10 kts | 30° |
| 2026-05-08 20:16 | 49.02051 | 2.51350 | 368 ft | 11 kts | 43° |
| 2026-05-08 20:16 | 49.02069 | 2.51418 | 369 ft | 0 kts | 85° |
| 2026-05-08 20:17 | 49.02074 | 2.51510 | 367 ft | 26 kts | 85° |
| 2026-05-08 20:18 | 49.02108 | 2.52126 | 368 ft | 90 kts | 85° |
| 2026-05-08 20:18 | 49.02177 | 2.53372 | 366 ft | 144 kts | 85° |
| 2026-05-08 20:18 | 49.02274 | 2.55057 | 703 ft | 157 kts | 82° |
| 2026-05-08 20:18 | 49.02384 | 2.56663 | 1528 ft | 151 kts | 83° |
| 2026-05-08 20:19 | 49.02510 | 2.58239 | 2196 ft | 147 kts | 83° |
| 2026-05-08 20:19 | 49.02597 | 2.59864 | 2499 ft | 163 kts | 86° |
| 2026-05-08 20:19 | 49.02663 | 2.61685 | 2729 ft | 181 kts | 85° |
| 2026-05-08 20:19 | 49.02749 | 2.63699 | 2983 ft | 200 kts | 85° |
| 2026-05-08 20:20 | 49.02853 | 2.65889 | 3233 ft | 221 kts | 85° |
| 2026-05-08 20:20 | 49.02976 | 2.68331 | 3509 ft | 240 kts | 85° |
| 2026-05-08 20:20 | 49.03114 | 2.70942 | 3910 ft | 252 kts | 84° |
| 2026-05-08 20:20 | 49.03545 | 2.73563 | 4473 ft | 258 kts | 64° |
| 2026-05-08 20:21 | 49.04676 | 2.75654 | 5034 ft | 263 kts | 36° |
| 2026-05-08 20:21 | 49.06385 | 2.76672 | 5641 ft | 267 kts | 7° |
| 2026-05-08 20:21 | 49.08223 | 2.76296 | 6269 ft | 271 kts | 338° |
| 2026-05-08 20:21 | 49.09712 | 2.74604 | 6844 ft | 274 kts | 308° |
| 2026-05-08 20:22 | 49.10480 | 2.71965 | 7455 ft | 275 kts | 277° |
| 2026-05-08 20:22 | 49.10525 | 2.69057 | 8132 ft | 274 kts | 266° |
| 2026-05-08 20:22 | 49.10389 | 2.66151 | 8826 ft | 274 kts | 262° |
| 2026-05-08 20:22 | 49.09875 | 2.63334 | 9449 ft | 277 kts | 248° |
| 2026-05-08 20:23 | 49.09136 | 2.60643 | 10035 ft | 281 kts | 246° |
| 2026-05-08 20:23 | 49.08344 | 2.57859 | 10433 ft | 291 kts | 246° |
| 2026-05-08 20:23 | 49.07521 | 2.54938 | 10702 ft | 305 kts | 246° |
| 2026-05-08 20:23 | 49.06672 | 2.51892 | 10992 ft | 318 kts | 247° |
| 2026-05-08 20:24 | 49.05798 | 2.48756 | 11247 ft | 331 kts | 246° |
| 2026-05-08 20:24 | 49.04876 | 2.45456 | 11496 ft | 343 kts | 246° |
| 2026-05-08 20:24 | 49.03931 | 2.42068 | 11886 ft | 349 kts | 246° |
| 2026-05-08 20:24 | 49.02991 | 2.38626 | 12392 ft | 353 kts | 249° |
| 2026-05-08 20:25 | 49.02350 | 2.35050 | 12877 ft | 357 kts | 261° |
| 2026-05-08 20:25 | 49.02213 | 2.31242 | 13355 ft | 361 kts | 269° |
| 2026-05-08 20:25 | 49.02262 | 2.27370 | 13843 ft | 364 kts | 270° |
| 2026-05-08 20:25 | 49.02327 | 2.23556 | 14281 ft | 366 kts | 270° |
| 2026-05-08 20:26 | 49.02385 | 2.19659 | 14709 ft | 368 kts | 270° |
| 2026-05-08 20:26 | 49.02438 | 2.15735 | 15143 ft | 371 kts | 270° |
| 2026-05-08 20:26 | 49.02488 | 2.11782 | 15592 ft | 373 kts | 269° |
| 2026-05-08 20:26 | 49.02534 | 2.07856 | 16032 ft | 375 kts | 269° |
| 2026-05-08 20:27 | 49.02579 | 2.03859 | 16488 ft | 377 kts | 269° |
| 2026-05-08 20:27 | 49.02622 | 1.99826 | 16944 ft | 379 kts | 269° |
| 2026-05-08 20:27 | 49.02663 | 1.95832 | 17379 ft | 381 kts | 269° |
| 2026-05-08 20:27 | 49.02703 | 1.91786 | 17819 ft | 383 kts | 269° |
| 2026-05-08 20:28 | 49.02742 | 1.87730 | 18248 ft | 385 kts | 269° |
| 2026-05-08 20:28 | 49.02780 | 1.83608 | 18655 ft | 388 kts | 269° |
| 2026-05-08 20:28 | 49.02816 | 1.79482 | 19047 ft | 389 kts | 269° |
| 2026-05-08 20:28 | 49.02851 | 1.75383 | 19433 ft | 391 kts | 269° |
| 2026-05-08 20:29 | 49.02884 | 1.71273 | 19876 ft | 390 kts | 270° |
| 2026-05-08 20:29 | 49.02917 | 1.67118 | 20278 ft | 391 kts | 270° |
| 2026-05-08 20:29 | 49.02948 | 1.62953 | 20646 ft | 393 kts | 270° |
| 2026-05-08 20:29 | 49.02978 | 1.58802 | 21015 ft | 395 kts | 270° |
| 2026-05-08 20:30 | 49.03006 | 1.54603 | 21387 ft | 396 kts | 270° |
| 2026-05-08 20:30 | 49.03033 | 1.50384 | 21756 ft | 398 kts | 270° |
| 2026-05-08 20:30 | 49.03058 | 1.46153 | 22129 ft | 399 kts | 270° |
| 2026-05-08 20:30 | 49.03082 | 1.41907 | 22494 ft | 401 kts | 270° |
| 2026-05-08 20:31 | 49.03104 | 1.37695 | 22837 ft | 402 kts | 270° |
| 2026-05-08 20:31 | 49.03125 | 1.33399 | 23195 ft | 404 kts | 270° |
| 2026-05-08 20:31 | 49.03143 | 1.29115 | 23640 ft | 402 kts | 272° |
| 2026-05-08 20:31 | 49.03161 | 1.24929 | 24058 ft | 399 kts | 272° |
| 2026-05-08 20:32 | 49.03180 | 1.20662 | 24281 ft | 402 kts | 272° |
| 2026-05-08 20:32 | 49.03259 | 1.16386 | 24504 ft | 404 kts | 274° |
| 2026-05-08 20:32 | 49.03398 | 1.12095 | 24768 ft | 406 kts | 275° |
| 2026-05-08 20:32 | 49.03559 | 1.07783 | 25033 ft | 407 kts | 275° |
| 2026-05-08 20:33 | 49.03719 | 1.03457 | 25291 ft | 409 kts | 275° |
| 2026-05-08 20:33 | 49.03868 | 0.99182 | 25563 ft | 410 kts | 275° |
| 2026-05-08 20:33 | 49.04011 | 0.94817 | 25838 ft | 412 kts | 275° |
| 2026-05-08 20:33 | 49.04145 | 0.90440 | 26107 ft | 413 kts | 275° |
| 2026-05-08 20:34 | 49.04273 | 0.86058 | 26372 ft | 415 kts | 275° |
| 2026-05-08 20:34 | 49.04398 | 0.81663 | 26665 ft | 416 kts | 275° |
| 2026-05-08 20:34 | 49.04643 | 0.72823 | 27199 ft | 420 kts | 275° |
| 2026-05-08 20:35 | 49.04763 | 0.68401 | 27462 ft | 422 kts | 275° |
| 2026-05-08 20:35 | 49.04885 | 0.63898 | 27743 ft | 424 kts | 275° |
| 2026-05-08 20:35 | 49.05005 | 0.59367 | 28031 ft | 426 kts | 275° |
| 2026-05-08 20:35 | 49.05123 | 0.54886 | 28318 ft | 428 kts | 275° |
| 2026-05-08 20:36 | 49.05240 | 0.50335 | 28587 ft | 430 kts | 275° |
| 2026-05-08 20:36 | 49.05357 | 0.45758 | 28877 ft | 432 kts | 275° |
| 2026-05-08 20:36 | 49.05473 | 0.41161 | 29124 ft | 435 kts | 274° |
| 2026-05-08 20:36 | 49.05587 | 0.36547 | 29342 ft | 439 kts | 274° |
| 2026-05-08 20:37 | 49.05699 | 0.31922 | 29638 ft | 441 kts | 274° |
| 2026-05-08 20:37 | 49.05811 | 0.27219 | 29952 ft | 442 kts | 274° |
| 2026-05-08 20:37 | 49.05921 | 0.22510 | 30231 ft | 444 kts | 274° |
| 2026-05-08 20:37 | 49.06028 | 0.17844 | 30506 ft | 446 kts | 274° |
| 2026-05-08 20:38 | 49.06134 | 0.13108 | 30790 ft | 447 kts | 274° |
| 2026-05-08 20:38 | 49.06240 | 0.08347 | 31071 ft | 448 kts | 274° |
| 2026-05-08 20:38 | 49.06342 | 0.03630 | 31338 ft | 449 kts | 274° |
| 2026-05-08 20:38 | 49.06445 | -0.01144 | 31592 ft | 450 kts | 274° |
| 2026-05-08 20:39 | 49.06547 | -0.05950 | 31798 ft | 452 kts | 273° |
| 2026-05-08 20:39 | 49.06643 | -0.10621 | 32030 ft | 454 kts | 273° |
| 2026-05-08 20:39 | 49.06740 | -0.15444 | 32271 ft | 455 kts | 273° |
| 2026-05-08 20:39 | 49.06834 | -0.20259 | 32600 ft | 453 kts | 273° |
| 2026-05-08 20:40 | 49.06926 | -0.25076 | 32997 ft | 451 kts | 273° |
| 2026-05-08 20:40 | 49.07017 | -0.29795 | 33358 ft | 449 kts | 273° |
| 2026-05-08 20:40 | 49.07102 | -0.34386 | 33716 ft | 448 kts | 273° |
| 2026-05-08 20:40 | 49.07186 | -0.38995 | 34061 ft | 446 kts | 273° |
| 2026-05-08 20:41 | 49.07271 | -0.43796 | 34348 ft | 445 kts | 273° |
| 2026-05-08 20:41 | 49.07352 | -0.48479 | 34583 ft | 445 kts | 273° |
| 2026-05-08 20:41 | 49.07432 | -0.53218 | 34813 ft | 446 kts | 272° |
| 2026-05-08 20:41 | 49.07511 | -0.57939 | 35052 ft | 446 kts | 272° |
| 2026-05-08 20:42 | 49.07587 | -0.62629 | 35287 ft | 446 kts | 272° |
| 2026-05-08 20:42 | 49.07661 | -0.67284 | 35515 ft | 446 kts | 272° |
| 2026-05-08 20:42 | 49.07734 | -0.72022 | 35738 ft | 446 kts | 272° |
| 2026-05-08 20:42 | 49.07805 | -0.76773 | 35992 ft | 446 kts | 272° |
| 2026-05-08 20:43 | 49.07874 | -0.81456 | 36216 ft | 446 kts | 272° |
| 2026-05-08 20:43 | 49.07941 | -0.86199 | 36438 ft | 446 kts | 272° |
| 2026-05-08 20:43 | 49.08011 | -0.90951 | 36644 ft | 446 kts | 272° |
| 2026-05-08 20:43 | 49.08287 | -0.95646 | 36844 ft | 446 kts | 278° |
| 2026-05-08 20:44 | 49.08856 | -1.00242 | 37075 ft | 446 kts | 281° |
| 2026-05-08 20:44 | 49.09548 | -1.04869 | 37276 ft | 446 kts | 283° |
| 2026-05-08 20:44 | 49.10301 | -1.09473 | 37480 ft | 446 kts | 283° |
| 2026-05-08 20:44 | 49.11066 | -1.13989 | 37657 ft | 446 kts | 283° |
| 2026-05-08 20:45 | 49.11852 | -1.18602 | 37846 ft | 446 kts | 283° |
| 2026-05-08 20:45 | 49.12368 | -1.21643 | 37962 ft | 446 kts | 283° |
| 2026-05-08 20:45 | 49.13393 | -1.27765 | 38034 ft | 450 kts | 283° |
| 2026-05-08 20:46 | 49.14910 | -1.36971 | 38029 ft | 450 kts | 282° |
| 2026-05-08 20:46 | 49.16417 | -1.46235 | 38030 ft | 450 kts | 282° |
| 2026-05-08 20:47 | 49.17923 | -1.55544 | 38028 ft | 450 kts | 282° |
| 2026-05-08 20:47 | 49.19390 | -1.64658 | 38026 ft | 450 kts | 282° |
| 2026-05-08 20:48 | 49.20905 | -1.74116 | 38024 ft | 450 kts | 282° |
| 2026-05-08 20:48 | 49.22382 | -1.83392 | 38024 ft | 451 kts | 282° |
| 2026-05-08 20:49 | 49.23856 | -1.92699 | 38022 ft | 451 kts | 282° |
| 2026-05-08 20:49 | 49.25323 | -2.02020 | 38021 ft | 451 kts | 282° |
| 2026-05-08 20:50 | 49.26777 | -2.11307 | 38024 ft | 451 kts | 281° |
| 2026-05-08 20:50 | 49.28236 | -2.20677 | 38021 ft | 451 kts | 281° |
| 2026-05-08 20:51 | 49.29685 | -2.30045 | 38023 ft | 452 kts | 281° |
| 2026-05-08 20:51 | 49.31130 | -2.39440 | 38022 ft | 453 kts | 281° |
| 2026-05-08 20:52 | 49.32558 | -2.48771 | 38021 ft | 453 kts | 281° |
| 2026-05-08 20:52 | 49.33987 | -2.58167 | 38022 ft | 453 kts | 281° |
| 2026-05-08 20:53 | 49.35402 | -2.67528 | 38024 ft | 453 kts | 281° |
| 2026-05-08 20:53 | 49.36827 | -2.77014 | 38024 ft | 455 kts | 281° |
| 2026-05-08 20:54 | 49.38235 | -2.86444 | 38009 ft | 456 kts | 281° |
| 2026-05-08 20:54 | 49.39639 | -2.95896 | 38012 ft | 456 kts | 281° |
| 2026-05-08 20:55 | 49.41044 | -3.05418 | 38022 ft | 456 kts | 281° |
| 2026-05-08 20:55 | 49.42433 | -3.14889 | 38025 ft | 456 kts | 280° |
| 2026-05-08 20:56 | 49.43822 | -3.24424 | 38024 ft | 458 kts | 280° |
| 2026-05-08 20:56 | 49.45204 | -3.33965 | 38018 ft | 458 kts | 280° |
| 2026-05-08 20:57 | 49.46576 | -3.43497 | 38018 ft | 458 kts | 280° |
| 2026-05-08 20:57 | 49.47949 | -3.53093 | 38018 ft | 457 kts | 280° |
| 2026-05-08 20:58 | 49.49300 | -3.62595 | 38019 ft | 458 kts | 280° |
| 2026-05-08 20:58 | 49.50662 | -3.72244 | 38023 ft | 459 kts | 279° |
| 2026-05-08 20:59 | 49.52004 | -3.81803 | 38022 ft | 460 kts | 279° |
| 2026-05-08 20:59 | 49.53340 | -3.91389 | 38020 ft | 460 kts | 279° |
| 2026-05-08 21:00 | 49.54674 | -4.01014 | 38025 ft | 460 kts | 279° |
| 2026-05-08 21:00 | 49.55995 | -4.10616 | 38019 ft | 461 kts | 279° |
| 2026-05-08 21:01 | 49.57097 | -4.18655 | 38019 ft | 461 kts | 279° |
| 2026-05-08 21:01 | 49.58651 | -4.29899 | 38018 ft | 462 kts | 281° |
| 2026-05-08 21:02 | 49.60426 | -4.37761 | 38021 ft | 465 kts | 289° |
| 2026-05-08 21:02 | 49.62954 | -4.46926 | 38023 ft | 466 kts | 290° |
| 2026-05-08 21:03 | 49.65552 | -4.56030 | 38022 ft | 466 kts | 290° |
| 2026-05-08 21:03 | 49.68163 | -4.65214 | 38018 ft | 466 kts | 290° |
| 2026-05-08 21:04 | 49.70737 | -4.74355 | 38021 ft | 466 kts | 290° |
| 2026-05-08 21:04 | 49.73311 | -4.83557 | 38021 ft | 466 kts | 290° |
| 2026-05-08 21:05 | 49.75874 | -4.92760 | 38021 ft | 465 kts | 290° |
| 2026-05-08 21:05 | 49.78431 | -5.01974 | 38024 ft | 465 kts | 290° |
| 2026-05-08 21:06 | 49.80961 | -5.11125 | 38020 ft | 465 kts | 290° |
| 2026-05-08 21:06 | 49.83512 | -5.20390 | 38021 ft | 465 kts | 290° |
| 2026-05-08 21:07 | 49.86031 | -5.29572 | 38025 ft | 465 kts | 290° |
| 2026-05-08 21:07 | 49.88554 | -5.38805 | 38022 ft | 464 kts | 289° |
| 2026-05-08 21:08 | 49.91068 | -5.48044 | 38029 ft | 464 kts | 289° |
| 2026-05-08 21:08 | 49.93566 | -5.57261 | 38024 ft | 466 kts | 289° |
| 2026-05-08 21:09 | 49.96081 | -5.66576 | 38022 ft | 466 kts | 289° |
| 2026-05-08 21:09 | 49.98578 | -5.75860 | 38021 ft | 466 kts | 289° |
| 2026-05-08 21:10 | 50.01059 | -5.85122 | 38021 ft | 466 kts | 289° |
| 2026-05-08 21:10 | 50.03539 | -5.94414 | 38033 ft | 466 kts | 289° |
| 2026-05-08 21:11 | 50.06004 | -6.03693 | 38023 ft | 466 kts | 289° |
| 2026-05-08 21:11 | 50.08459 | -6.12968 | 38014 ft | 466 kts | 289° |
| 2026-05-08 21:12 | 50.10909 | -6.22267 | 38029 ft | 465 kts | 288° |
| 2026-05-08 21:12 | 50.13357 | -6.31593 | 38025 ft | 465 kts | 288° |
| 2026-05-08 21:13 | 50.15789 | -6.40894 | 38030 ft | 465 kts | 288° |
| 2026-05-08 21:13 | 50.18220 | -6.50233 | 38039 ft | 467 kts | 288° |
| 2026-05-08 21:14 | 50.20653 | -6.59616 | 38033 ft | 467 kts | 288° |
| 2026-05-08 21:14 | 50.23093 | -6.69064 | 38028 ft | 467 kts | 288° |
| 2026-05-08 21:15 | 50.25491 | -6.78389 | 38029 ft | 467 kts | 288° |
| 2026-05-08 21:15 | 50.27892 | -6.87761 | 38030 ft | 466 kts | 288° |
| 2026-05-08 21:16 | 50.30295 | -6.97184 | 38030 ft | 467 kts | 288° |
| 2026-05-08 21:16 | 50.32704 | -7.06675 | 38031 ft | 468 kts | 288° |
| 2026-05-08 21:17 | 50.35100 | -7.16146 | 38031 ft | 468 kts | 288° |
| 2026-05-08 21:17 | 50.37482 | -7.25604 | 38031 ft | 468 kts | 287° |
| 2026-05-08 21:18 | 50.39866 | -7.35110 | 38032 ft | 468 kts | 287° |
| 2026-05-08 21:18 | 50.42227 | -7.44567 | 38044 ft | 468 kts | 287° |
| 2026-05-08 21:19 | 50.44585 | -7.54051 | 38035 ft | 468 kts | 287° |
| 2026-05-08 21:19 | 50.46949 | -7.63598 | 38037 ft | 468 kts | 287° |
| 2026-05-08 21:20 | 50.49299 | -7.73132 | 38037 ft | 468 kts | 287° |
| 2026-05-08 21:20 | 50.51650 | -7.82709 | 38035 ft | 468 kts | 287° |
| 2026-05-08 21:21 | 50.53974 | -7.92219 | 38058 ft | 468 kts | 287° |
| 2026-05-08 21:21 | 50.56305 | -8.01799 | 38039 ft | 468 kts | 287° |
| 2026-05-08 21:22 | 50.58626 | -8.11380 | 38039 ft | 468 kts | 286° |
| 2026-05-08 21:22 | 50.60928 | -8.20924 | 38043 ft | 469 kts | 287° |
| 2026-05-08 21:23 | 50.63239 | -8.30550 | 38042 ft | 470 kts | 286° |
| 2026-05-08 21:23 | 50.65549 | -8.40206 | 38042 ft | 470 kts | 286° |
| 2026-05-08 21:24 | 50.67833 | -8.49801 | 38042 ft | 470 kts | 286° |
| 2026-05-08 21:24 | 50.70130 | -8.59493 | 38042 ft | 471 kts | 286° |
| 2026-05-08 21:25 | 50.72416 | -8.69183 | 38043 ft | 471 kts | 286° |
| 2026-05-08 21:25 | 50.74693 | -8.78880 | 38045 ft | 471 kts | 286° |
| 2026-05-08 21:26 | 50.76953 | -8.88545 | 38045 ft | 470 kts | 286° |
| 2026-05-08 21:26 | 50.79206 | -8.98226 | 38046 ft | 471 kts | 285° |
| 2026-05-08 21:27 | 50.81464 | -9.07970 | 38048 ft | 472 kts | 285° |
| 2026-05-08 21:27 | 50.83698 | -9.17656 | 38048 ft | 472 kts | 285° |
| 2026-05-08 21:28 | 50.85928 | -9.27367 | 38042 ft | 472 kts | 285° |
| 2026-05-08 21:28 | 50.88118 | -9.36946 | 38045 ft | 472 kts | 285° |
| 2026-05-08 21:29 | 50.90342 | -9.46722 | 38056 ft | 472 kts | 285° |
| 2026-05-08 21:29 | 50.92566 | -9.56547 | 38042 ft | 473 kts | 285° |
| 2026-05-08 21:30 | 50.93360 | -9.60065 | 38042 ft | 473 kts | 285° |